VVDN/DAD METAR and TAF weather

Enter ICAO airport designator
Station Type Date Time Source
VVDN METAR 2020/02/19 14:30 UTC NOAA

VVDN 191430Z 00000KT 7000 FEW013 22/19 Q1021 NOSIG


Station Type Date Time Source
VVDN Decoded METAR 2020/02/19 14:30 UTC NOAA

Da Nang, Vietnam (VVDN) 16-02N 108-11E 7M
Feb 19, 2020 - 09:30 AM EST / 2020.02.19 1430 UTC
Wind: Calm:0
Visibility: 4 mile(s):0
Sky conditions: mostly clear
Temperature: 71 F (22 C)
Dew Point: 66 F (19 C)
Relative Humidity: 83%
Pressure (altimeter): 30.15 in. Hg (1021 hPa)
ob: VVDN 191430Z 00000KT 7000 FEW013 22/19 Q1021 NOSIG
cycle: 14

Station Type Date Time Source
VVDN TAF 2020/02/19 12:39 UTC NOAA

TAF VVDN 191100Z 1912/2012 10005KT 8000 FEW015
BECMG 1921/1922 4000 BR
BECMG 2000/2001 7000 NSW

Example: see airport list